Time;durP1;ratioP1;P1;durP2;ratioP2;P2;SDS_P1;SDS_P2;PMS_P1;PMS_P2;Temp;Humidity;BMP_temperature;BMP_pressure;BME280_temperature;BME280_humidity;BME280_pressure;Samples;Min_cycle;Max_cycle;Signal;HPM_P1;HPM_P2
2023/08/15 00:01:18;;;;;;;11.05;4.18;;;20.40;99.90;;;;;;5051371;28;20106;-62
2023/08/15 00:03:46;;;;;;;14.63;4.43;;;20.30;99.90;;;;;;5051400;28;20068;-61
2023/08/15 00:06:12;;;;;;;8.10;3.67;;;20.30;99.90;;;;;;5051464;28;20642;-61
2023/08/15 00:08:38;;;;;;;10.48;4.10;;;20.40;99.90;;;;;;5051277;28;20083;-61
2023/08/15 00:11:04;;;;;;;8.80;4.00;;;20.60;99.90;;;;;;5050964;28;20029;-61
2023/08/15 00:13:29;;;;;;;9.48;3.85;;;20.70;99.90;;;;;;5051243;28;20116;-61
2023/08/15 00:15:55;;;;;;;12.20;4.10;;;20.90;99.90;;;;;;5051029;28;20375;-61
2023/08/15 00:18:21;;;;;;;8.18;3.75;;;21.00;99.90;;;;;;5051570;28;20367;-61
2023/08/15 00:20:48;;;;;;;11.07;3.90;;;21.00;99.90;;;;;;5051086;28;20451;-61
2023/08/15 00:23:14;;;;;;;8.18;3.95;;;20.90;99.90;;;;;;5051102;28;20029;-61
2023/08/15 00:25:39;;;;;;;10.20;3.70;;;20.90;99.90;;;;;;5050641;28;20585;-61
2023/08/15 00:28:05;;;;;;;9.75;3.90;;;20.80;99.90;;;;;;5050823;28;20111;-61
2023/08/15 00:30:32;;;;;;;9.40;3.70;;;20.80;99.90;;;;;;5049594;28;20037;-61
2023/08/15 00:32:58;;;;;;;8.43;3.85;;;21.00;99.90;;;;;;5051336;28;20025;-61
2023/08/15 00:35:24;;;;;;;9.90;4.20;;;20.90;99.90;;;;;;5051051;28;20417;-61
2023/08/15 00:37:50;;;;;;;9.52;3.80;;;20.90;99.90;;;;;;5050901;28;20029;-61
2023/08/15 00:40:16;;;;;;;9.20;4.10;;;20.90;99.90;;;;;;5050481;28;20029;-61
2023/08/15 00:42:41;;;;;;;8.32;4.00;;;20.70;99.90;;;;;;5050950;28;20025;-61
2023/08/15 00:45:07;;;;;;;9.30;3.85;;;20.50;99.90;;;;;;5051283;28;20025;-61
2023/08/15 00:47:33;;;;;;;9.48;4.20;;;20.50;99.90;;;;;;5050752;28;20479;-61
2023/08/15 00:50:01;;;;;;;9.30;4.00;;;20.30;99.90;;;;;;5050803;28;20037;-61
2023/08/15 00:52:27;;;;;;;8.57;4.47;;;20.20;99.90;;;;;;5050823;28;20470;-61
2023/08/15 00:54:54;;;;;;;8.75;4.30;;;20.10;99.90;;;;;;5050660;28;20094;-61
2023/08/15 00:57:21;;;;;;;9.23;4.32;;;20.00;99.90;;;;;;5050877;28;20023;-61
2023/08/15 00:59:46;;;;;;;11.32;4.55;;;19.90;99.90;;;;;;5050692;28;20037;-60
2023/08/15 01:02:12;;;;;;;9.85;4.68;;;19.90;99.90;;;;;;5050854;28;20032;-61
2023/08/15 01:04:39;;;;;;;9.57;4.20;;;19.90;99.90;;;;;;5050653;28;20136;-61
2023/08/15 01:07:05;;;;;;;7.25;3.50;;;19.90;99.90;;;;;;5051145;28;20021;-61
2023/08/15 01:09:31;;;;;;;7.95;4.10;;;19.80;99.90;;;;;;5054043;28;20414;-61
2023/08/15 01:12:35;;;;;;;9.32;4.05;;;19.70;99.90;;;;;;5054692;28;20057;-61
2023/08/15 01:15:08;;;;;;;11.02;4.07;;;19.70;99.90;;;;;;5032324;28;20045;-61
2023/08/15 01:17:48;;;;;;;8.55;4.03;;;19.60;99.90;;;;;;5031709;28;20071;-61
2023/08/15 01:20:20;;;;;;;6.63;3.67;;;19.70;99.90;;;;;;5032314;28;20029;-60
2023/08/15 01:22:47;;;;;;;8.63;4.05;;;19.50;99.90;;;;;;5031814;28;20029;-60
2023/08/15 01:25:13;;;;;;;8.13;4.10;;;19.40;99.90;;;;;;5031794;28;20045;-61
2023/08/15 01:27:39;;;;;;;9.30;3.70;;;19.50;99.90;;;;;;5032356;28;20521;-61
2023/08/15 01:30:05;;;;;;;9.32;3.53;;;19.60;99.90;;;;;;5031823;28;20415;-61
2023/08/15 01:32:40;;;;;;;7.20;3.58;;;19.70;99.90;;;;;;5031937;28;20034;-61
2023/08/15 01:35:31;;;;;;;6.53;3.00;;;19.80;99.90;;;;;;5031764;28;20087;-61
2023/08/15 01:38:20;;;;;;;6.85;3.10;;;19.90;99.90;;;;;;5024417;28;20522;-61
2023/08/15 01:40:50;;;;;;;7.03;3.30;;;19.90;99.90;;;;;;5024566;28;20041;-62
2023/08/15 01:43:16;;;;;;;5.57;3.20;;;19.90;99.90;;;;;;5031725;28;20041;-61
2023/08/15 01:45:42;;;;;;;6.13;3.20;;;19.90;99.90;;;;;;5032061;28;20036;-61
2023/08/15 01:48:08;;;;;;;5.72;2.95;;;19.90;99.90;;;;;;5031623;28;20033;-61
2023/08/15 01:50:33;;;;;;;6.88;2.83;;;19.90;99.90;;;;;;5013289;28;20045;-61
2023/08/15 01:52:59;;;;;;;4.35;2.88;;;19.90;99.90;;;;;;4994127;28;20427;-61
2023/08/15 01:55:25;;;;;;;5.50;3.10;;;19.80;99.90;;;;;;4994428;28;20026;-61
2023/08/15 01:57:50;;;;;;;4.72;2.90;;;19.90;99.90;;;;;;4994431;28;20034;-61
2023/08/15 02:00:16;;;;;;;4.80;2.67;;;19.80;99.90;;;;;;4994254;28;20385;-61
2023/08/15 02:02:43;;;;;;;4.40;2.72;;;19.70;99.90;;;;;;4994327;28;20160;-61
2023/08/15 02:05:08;;;;;;;5.07;3.10;;;19.60;99.90;;;;;;4994317;28;20026;-61
2023/08/15 02:07:34;;;;;;;7.47;3.25;;;19.40;99.90;;;;;;4993906;28;20073;-61
2023/08/15 02:10:00;;;;;;;6.70;3.22;;;19.40;99.90;;;;;;4994009;28;20026;-61
2023/08/15 02:12:26;;;;;;;5.97;3.28;;;19.30;99.90;;;;;;4994157;28;20031;-61
2023/08/15 02:14:52;;;;;;;5.75;3.00;;;19.20;99.90;;;;;;5005022;28;20036;-61
2023/08/15 02:17:17;;;;;;;7.13;2.90;;;19.20;99.90;;;;;;5013552;28;20041;-61
2023/08/15 02:19:43;;;;;;;7.55;3.30;;;19.20;99.90;;;;;;5013043;28;20088;-61
2023/08/15 02:22:08;;;;;;;6.03;3.30;;;19.20;99.90;;;;;;5013159;28;20391;-61
2023/08/15 02:24:34;;;;;;;6.28;3.72;;;19.10;99.90;;;;;;5022642;28;20071;-61
2023/08/15 02:27:00;;;;;;;7.72;3.70;;;19.10;99.90;;;;;;5053083;28;20098;-61
2023/08/15 02:29:25;;;;;;;6.03;3.50;;;19.10;99.90;;;;;;5052903;28;20036;-61
2023/08/15 02:31:51;;;;;;;6.65;3.75;;;19.10;99.90;;;;;;5053359;28;20021;-61
2023/08/15 02:34:17;;;;;;;5.57;3.20;;;19.00;99.90;;;;;;5052890;28;20129;-61
2023/08/15 02:36:46;;;;;;;5.30;3.35;;;19.10;99.90;;;;;;5052552;28;20029;-61
2023/08/15 02:39:13;;;;;;;6.15;3.60;;;19.00;99.90;;;;;;5051535;28;20071;-61
2023/08/15 02:41:39;;;;;;;9.45;3.60;;;19.00;99.90;;;;;;5052737;28;20052;-61
2023/08/15 02:44:05;;;;;;;5.15;3.38;;;19.00;99.90;;;;;;5053220;28;20477;-61
2023/08/15 02:46:31;;;;;;;8.32;3.50;;;19.10;99.90;;;;;;5052993;28;20359;-61
2023/08/15 02:48:56;;;;;;;5.30;3.10;;;19.30;99.90;;;;;;5051340;28;20041;-61
2023/08/15 02:51:22;;;;;;;5.85;3.65;;;19.50;99.90;;;;;;5052213;28;20029;-61
2023/08/15 02:53:48;;;;;;;6.07;3.63;;;19.70;99.90;;;;;;5052575;28;20033;-61
2023/08/15 02:56:13;;;;;;;6.70;3.45;;;19.70;99.90;;;;;;5052522;28;20025;-61
2023/08/15 02:58:39;;;;;;;5.35;3.50;;;19.80;99.90;;;;;;5052914;28;20020;-61
2023/08/15 03:01:05;;;;;;;4.30;3.00;;;19.80;99.90;;;;;;5052286;28;20036;-61
2023/08/15 03:03:30;;;;;;;7.38;3.38;;;19.80;99.90;;;;;;5052411;28;20071;-61
2023/08/15 03:06:03;;;;;;;6.55;3.45;;;19.90;99.90;;;;;;5051119;28;20029;-61
2023/08/15 03:08:30;;;;;;;4.80;2.83;;;19.80;99.90;;;;;;5052264;28;20047;-61
2023/08/15 03:10:58;;;;;;;8.13;3.10;;;19.80;99.90;;;;;;5052121;28;20299;-61
2023/08/15 03:13:23;;;;;;;4.93;3.20;;;19.90;99.90;;;;;;5052162;28;20028;-61
2023/08/15 03:15:56;;;;;;;7.13;3.28;;;19.90;99.90;;;;;;5051992;28;20045;-61
2023/08/15 03:18:22;;;;;;;5.22;3.38;;;19.70;99.90;;;;;;5051828;28;20033;-61
2023/08/15 03:21:14;;;;;;;6.82;3.40;;;19.50;99.90;;;;;;5051880;28;20098;-61
2023/08/15 03:23:40;;;;;;;8.95;3.45;;;19.40;99.90;;;;;;5050808;28;20107;-61
2023/08/15 03:26:06;;;;;;;4.93;3.25;;;19.20;99.90;;;;;;5052188;28;20049;-61
2023/08/15 03:28:33;;;;;;;6.38;3.90;;;19.20;99.90;;;;;;5052017;28;20090;-61
2023/08/15 03:31:06;;;;;;;5.40;3.50;;;19.10;99.90;;;;;;5050997;28;20572;-61
2023/08/15 03:33:33;;;;;;;6.63;3.90;;;19.00;99.90;;;;;;5051521;28;20100;-61
2023/08/15 03:35:58;;;;;;;6.40;3.70;;;19.00;99.90;;;;;;5052184;28;20037;-61
2023/08/15 03:38:24;;;;;;;6.22;3.60;;;18.90;99.90;;;;;;5051781;28;20086;-61
2023/08/15 03:41:02;;;;;;;4.90;3.88;;;18.90;99.90;;;;;;5051746;28;20374;-61
2023/08/15 03:43:28;;;;;;;6.78;3.80;;;18.90;99.90;;;;;;5051821;28;20059;-61
2023/08/15 03:45:53;;;;;;;6.75;3.75;;;18.90;99.90;;;;;;5051541;28;20025;-61
2023/08/15 03:48:19;;;;;;;4.93;3.65;;;18.90;99.90;;;;;;5051592;28;20036;-61
2023/08/15 03:50:45;;;;;;;5.45;3.70;;;18.90;99.90;;;;;;5051404;28;20029;-61
2023/08/15 03:53:10;;;;;;;7.25;3.75;;;18.90;99.90;;;;;;5051413;28;20025;-61
2023/08/15 03:55:36;;;;;;;7.30;4.15;;;18.80;99.90;;;;;;5051536;28;20490;-61
2023/08/15 03:58:02;;;;;;;7.57;4.22;;;18.80;99.90;;;;;;5051490;28;20041;-61
2023/08/15 04:00:27;;;;;;;6.32;3.80;;;18.80;99.90;;;;;;5051254;28;20051;-61
2023/08/15 04:02:53;;;;;;;7.50;3.85;;;18.80;99.90;;;;;;5051446;28;20037;-61
2023/08/15 04:05:19;;;;;;;6.28;3.88;;;19.00;99.90;;;;;;5051423;28;20017;-61
2023/08/15 04:07:45;;;;;;;4.25;3.60;;;19.20;99.90;;;;;;5051355;28;20086;-61
2023/08/15 04:10:14;;;;;;;5.72;4.03;;;19.30;99.90;;;;;;5051108;28;20057;-60
2023/08/15 04:12:40;;;;;;;5.95;3.63;;;19.40;99.90;;;;;;5051152;28;20521;-61
2023/08/15 04:15:06;;;;;;;6.93;3.65;;;19.50;99.90;;;;;;5051151;28;20447;-61
2023/08/15 04:17:32;;;;;;;8.10;3.80;;;19.60;99.90;;;;;;5051351;28;20105;-61
2023/08/15 04:19:58;;;;;;;7.60;3.80;;;19.60;99.90;;;;;;5051173;28;20033;-61
2023/08/15 04:22:23;;;;;;;6.65;3.55;;;19.70;99.90;;;;;;5051155;28;20082;-62
2023/08/15 04:24:49;;;;;;;6.55;4.05;;;19.50;99.90;;;;;;5050858;28;20073;-61
2023/08/15 04:27:15;;;;;;;7.72;4.18;;;19.60;99.90;;;;;;5051141;28;20032;-61
2023/08/15 04:29:40;;;;;;;6.53;3.60;;;19.60;99.90;;;;;;5050750;28;20044;-61
2023/08/15 04:32:06;;;;;;;7.30;3.88;;;19.60;99.90;;;;;;5050664;28;20035;-61
2023/08/15 04:34:32;;;;;;;5.22;3.85;;;19.60;99.90;;;;;;5051098;28;20059;-61
2023/08/15 04:36:57;;;;;;;4.55;3.97;;;19.40;99.90;;;;;;5050997;28;20037;-62
2023/08/15 04:39:24;;;;;;;6.85;4.25;;;19.30;99.90;;;;;;5050978;28;20744;-61
2023/08/15 04:41:50;;;;;;;6.75;4.53;;;19.20;99.90;;;;;;5053378;28;20021;-61
2023/08/15 04:44:16;;;;;;;5.88;4.63;;;19.10;99.90;;;;;;5054944;28;20402;-61
2023/08/15 04:46:42;;;;;;;6.38;4.25;;;19.00;99.90;;;;;;5053467;28;20025;-61
2023/08/15 04:49:07;;;;;;;6.57;4.72;;;19.00;99.90;;;;;;5055085;28;20502;-61
2023/08/15 04:51:33;;;;;;;7.18;4.50;;;18.90;99.90;;;;;;5054768;28;20051;-61
2023/08/15 04:53:58;;;;;;;7.07;4.55;;;18.90;99.90;;;;;;5055241;28;20021;-61
2023/08/15 04:56:24;;;;;;;6.57;4.70;;;18.90;99.90;;;;;;5054817;28;20037;-61
2023/08/15 04:58:50;;;;;;;7.35;4.47;;;18.90;99.90;;;;;;5054644;28;20525;-61
2023/08/15 05:01:15;;;;;;;6.35;4.72;;;18.90;99.90;;;;;;5053563;28;20043;-61
2023/08/15 05:03:41;;;;;;;5.65;4.40;;;18.90;99.90;;;;;;5054578;28;20108;-61
2023/08/15 05:06:07;;;;;;;8.20;4.63;;;18.80;99.90;;;;;;5054567;28;20040;-61
2023/08/15 05:08:33;;;;;;;6.47;4.30;;;18.70;99.90;;;;;;5055062;28;20021;-61
2023/08/15 05:11:01;;;;;;;5.47;4.60;;;18.70;99.90;;;;;;5054390;28;20095;-61
2023/08/15 05:13:27;;;;;;;7.43;4.47;;;18.70;99.90;;;;;;5054470;28;20017;-61
2023/08/15 05:15:53;;;;;;;7.03;4.80;;;18.70;99.90;;;;;;5054295;28;20063;-61
2023/08/15 05:18:19;;;;;;;5.07;4.10;;;18.70;99.90;;;;;;5053169;28;20024;-61
2023/08/15 05:20:48;;;;;;;8.93;4.60;;;18.80;99.90;;;;;;5054220;28;20076;-61
2023/08/15 05:23:17;;;;;;;7.60;4.10;;;18.90;99.90;;;;;;5054359;28;20032;-60
2023/08/15 05:25:43;;;;;;;6.93;4.53;;;19.20;99.90;;;;;;5054481;28;20052;-61
2023/08/15 05:28:10;;;;;;;7.57;4.43;;;19.20;99.90;;;;;;5054298;28;20445;-61
2023/08/15 05:30:35;;;;;;;4.90;3.70;;;19.30;99.90;;;;;;5053865;28;20029;-61
2023/08/15 05:33:02;;;;;;;4.70;3.70;;;19.40;99.90;;;;;;5054556;28;20025;-61
2023/08/15 05:35:28;;;;;;;7.43;4.10;;;19.40;99.90;;;;;;5054219;28;20108;-61
2023/08/15 05:37:53;;;;;;;5.88;4.20;;;19.50;99.90;;;;;;5054179;28;20120;-61
2023/08/15 05:40:20;;;;;;;5.97;3.88;;;19.50;99.90;;;;;;5053944;28;20029;-61
2023/08/15 05:42:46;;;;;;;3.95;3.53;;;19.60;99.90;;;;;;5054235;28;20032;-61
2023/08/15 05:45:12;;;;;;;7.55;4.03;;;19.60;99.90;;;;;;5053615;28;20025;-62
2023/08/15 05:47:37;;;;;;;6.50;3.83;;;19.60;99.90;;;;;;5053934;28;20106;-61
2023/08/15 05:50:03;;;;;;;8.93;4.20;;;19.50;99.90;;;;;;5054208;28;20044;-61
2023/08/15 05:52:29;;;;;;;7.05;4.22;;;19.50;99.90;;;;;;5053421;28;20032;-61
2023/08/15 05:54:55;;;;;;;7.18;4.15;;;19.40;99.90;;;;;;5053453;28;20406;-61
2023/08/15 05:57:21;;;;;;;7.47;4.20;;;19.20;99.90;;;;;;5053615;28;20086;-61
2023/08/15 05:59:47;;;;;;;4.63;3.80;;;19.10;99.90;;;;;;5053218;28;20036;-62
2023/08/15 06:02:13;;;;;;;7.75;4.00;;;19.10;99.90;;;;;;5053567;28;20552;-61
2023/08/15 06:04:39;;;;;;;6.75;4.03;;;19.00;99.90;;;;;;5053615;28;20029;-62
2023/08/15 06:07:05;;;;;;;7.00;4.15;;;18.90;99.90;;;;;;5053458;28;20478;-61
2023/08/15 06:09:31;;;;;;;8.30;4.32;;;18.90;99.90;;;;;;5053453;28;20029;-62
2023/08/15 06:11:56;;;;;;;6.78;4.10;;;18.90;99.90;;;;;;5053827;28;20033;-61
2023/08/15 06:14:22;;;;;;;7.20;4.45;;;18.90;99.90;;;;;;5052862;28;20473;-62
2023/08/15 06:16:48;;;;;;;8.02;4.30;;;18.90;99.90;;;;;;5053346;28;20041;-61
2023/08/15 06:19:14;;;;;;;7.18;4.53;;;18.90;99.90;;;;;;5053033;28;20040;-62
2023/08/15 06:21:41;;;;;;;7.85;4.07;;;18.90;99.90;;;;;;5053203;28;20025;-62
2023/08/15 06:24:12;;;;;;;7.63;3.72;;;18.90;99.90;;;;;;5052963;28;20029;-62
2023/08/15 06:26:38;;;;;;;6.45;3.47;;;18.90;99.90;;;;;;5053251;28;20452;-61
2023/08/15 06:29:05;;;;;;;7.00;4.22;;;18.90;99.90;;;;;;5052698;28;20114;-62
2023/08/15 06:31:31;;;;;;;7.88;4.10;;;18.90;99.90;;;;;;5053289;28;20119;-61
2023/08/15 06:33:57;;;;;;;7.40;4.30;;;18.90;99.90;;;;;;5052812;28;20017;-61
2023/08/15 06:36:23;;;;;;;6.15;3.75;;;18.90;99.90;;;;;;5052866;28;20487;-61
2023/08/15 06:38:50;;;;;;;6.10;3.78;;;19.00;99.90;;;;;;5052720;28;20032;-61
2023/08/15 06:41:16;;;;;;;6.35;3.63;;;19.30;99.90;;;;;;5052947;28;20039;-60
2023/08/15 06:43:43;;;;;;;6.78;3.63;;;19.40;99.90;;;;;;5052687;28;20025;-61
2023/08/15 06:46:09;;;;;;;6.85;3.80;;;19.60;99.90;;;;;;5052674;28;20108;-61
2023/08/15 06:48:34;;;;;;;6.78;3.83;;;19.70;99.90;;;;;;5053151;28;20096;-61
2023/08/15 06:51:00;;;;;;;7.00;3.70;;;19.80;99.90;;;;;;5052497;28;20028;-61
2023/08/15 06:53:26;;;;;;;6.18;3.50;;;19.90;99.90;;;;;;5052540;28;20032;-61
2023/08/15 06:55:52;;;;;;;8.40;3.88;;;20.00;99.90;;;;;;5052204;28;20112;-61
2023/08/15 06:58:18;;;;;;;6.45;3.47;;;20.10;99.90;;;;;;5052498;28;20533;-61
2023/08/15 07:00:44;;;;;;;4.18;3.28;;;20.00;99.90;;;;;;5052479;28;20029;-61
2023/08/15 07:03:10;;;;;;;6.15;3.45;;;20.00;99.90;;;;;;5052358;28;20055;-61
2023/08/15 07:05:35;;;;;;;6.57;3.55;;;20.10;99.90;;;;;;5051382;28;20083;-62
2023/08/15 07:08:03;;;;;;;6.47;3.50;;;20.20;99.90;;;;;;5052175;28;20018;-61
2023/08/15 07:10:29;;;;;;;6.93;3.80;;;20.10;99.90;;;;;;5051722;28;20048;-61
2023/08/15 07:12:55;;;;;;;7.53;3.25;;;20.00;99.90;;;;;;5052238;28;20025;-61
2023/08/15 07:15:21;;;;;;;10.23;3.45;;;19.90;99.90;;;;;;5051920;28;20091;-61
2023/08/15 07:17:46;;;;;;;5.65;3.55;;;19.90;99.90;;;;;;5052141;28;20025;-62
2023/08/15 07:20:14;;;;;;;6.72;3.55;;;19.80;99.90;;;;;;5051905;28;20021;-61
2023/08/15 07:22:41;;;;;;;7.03;3.90;;;19.80;99.90;;;;;;5051954;28;20113;-62
2023/08/15 07:25:07;;;;;;;10.32;4.35;;;19.80;99.90;;;;;;5051427;28;20045;-61
2023/08/15 07:27:39;;;;;;;4.32;3.35;;;19.80;99.90;;;;;;5109436;27;20453;-62
2023/08/15 07:30:06;;;;;;;7.78;3.65;;;19.80;99.90;;;;;;5109139;28;20036;-63
2023/08/15 07:32:35;;;;;;;4.88;3.55;;;19.90;99.90;;;;;;5108991;28;20023;-62
2023/08/15 07:35:00;;;;;;;6.55;3.90;;;19.90;99.90;;;;;;5109020;28;20020;-62
2023/08/15 07:37:26;;;;;;;7.80;4.07;;;19.90;99.90;;;;;;5108839;28;20476;-63
2023/08/15 07:40:05;;;;;;;6.00;3.60;;;20.10;99.90;;;;;;5108809;28;20024;-63
2023/08/15 07:42:31;;;;;;;8.73;3.80;;;20.20;99.90;;;;;;5108873;28;20081;-63
2023/08/15 07:44:57;;;;;;;7.95;4.00;;;20.30;99.90;;;;;;5108954;28;20020;-62
2023/08/15 07:47:23;;;;;;;6.95;3.50;;;20.30;99.90;;;;;;5108746;28;20036;-63
2023/08/15 07:49:49;;;;;;;8.20;3.35;;;20.30;99.90;;;;;;5109002;28;20016;-63
2023/08/15 07:52:14;;;;;;;5.07;3.30;;;20.40;99.90;;;;;;5108531;28;20054;-62
2023/08/15 07:54:43;;;;;;;6.78;3.20;;;20.50;99.90;;;;;;5108601;28;20024;-62
2023/08/15 07:57:09;;;;;;;9.65;3.28;;;20.60;99.90;;;;;;5090749;28;20462;-62
2023/08/15 07:59:35;;;;;;;6.80;3.20;;;20.70;99.90;;;;;;5108458;28;20099;-62
2023/08/15 08:02:00;;;;;;;8.90;3.13;;;20.90;99.90;;;;;;5108481;28;20019;-62
2023/08/15 08:04:26;;;;;;;8.80;3.45;;;21.00;99.90;;;;;;5108440;28;20054;-62
2023/08/15 08:06:51;;;;;;;5.93;3.15;;;21.20;99.90;;;;;;5108289;28;20573;-61
2023/08/15 08:09:17;;;;;;;8.63;3.10;;;21.30;99.90;;;;;;5108390;28;20652;-62
2023/08/15 08:11:44;;;;;;;8.35;3.30;;;21.40;99.90;;;;;;5108291;28;20057;-62
2023/08/15 08:14:10;;;;;;;6.55;3.00;;;21.40;99.90;;;;;;5108142;28;20016;-62
2023/08/15 08:16:35;;;;;;;8.48;3.20;;;21.50;99.90;;;;;;5108701;28;20028;-62
2023/08/15 08:19:01;;;;;;;5.18;2.80;;;21.50;99.90;;;;;;5107854;28;20020;-62
2023/08/15 08:21:27;;;;;;;6.97;2.90;;;21.70;99.90;;;;;;5108052;28;20062;-62
2023/08/15 08:23:52;;;;;;;6.75;2.80;;;21.80;99.90;;;;;;5107804;28;20024;-62
2023/08/15 08:26:18;;;;;;;5.28;2.47;;;21.90;99.90;;;;;;5107746;28;20424;-62
2023/08/15 08:28:44;;;;;;;6.22;2.80;;;22.00;99.90;;;;;;5107992;28;20024;-62
2023/08/15 08:31:09;;;;;;;6.80;2.83;;;22.00;99.90;;;;;;5108025;28;20028;-62
2023/08/15 08:33:35;;;;;;;5.88;3.08;;;22.00;99.90;;;;;;5107855;28;20388;-62
2023/08/15 08:36:00;;;;;;;7.53;3.38;;;21.90;99.90;;;;;;5108118;28;20024;-62
2023/08/15 08:38:26;;;;;;;10.73;3.15;;;21.90;99.90;;;;;;5097368;28;20048;-62
2023/08/15 08:40:55;;;;;;;7.97;2.97;;;21.80;99.90;;;;;;5094003;28;20085;-61
2023/08/15 08:43:20;;;;;;;6.57;3.03;;;21.70;99.90;;;;;;5094242;28;20027;-61
2023/08/15 08:45:52;;;;;;;6.65;3.38;;;21.70;99.90;;;;;;5094567;28;20036;-62
2023/08/15 08:48:21;;;;;;;7.40;3.13;;;21.70;99.90;;;;;;5094364;28;20027;-62
2023/08/15 08:50:48;;;;;;;6.07;2.80;;;21.80;99.90;;;;;;5094131;28;20016;-62
2023/08/15 08:53:13;;;;;;;6.82;3.03;;;21.90;99.90;;;;;;5093499;28;20397;-62
2023/08/15 08:55:40;;;;;;;8.10;3.20;;;22.00;99.90;;;;;;5093858;28;20042;-62
2023/08/15 08:58:08;;;;;;;7.57;3.30;;;22.00;99.90;;;;;;5093765;28;20095;-62
2023/08/15 09:00:34;;;;;;;7.47;3.13;;;22.10;99.90;;;;;;5094184;28;20405;-62
2023/08/15 09:03:00;;;;;;;8.75;3.20;;;22.10;99.90;;;;;;5093700;28;20035;-62
2023/08/15 09:05:28;;;;;;;8.18;3.55;;;21.90;99.90;;;;;;5093474;28;20409;-62
2023/08/15 09:07:55;;;;;;;8.48;3.85;;;22.10;99.90;;;;;;5093342;28;20028;-62
2023/08/15 09:10:21;;;;;;;10.20;3.95;;;22.20;99.90;;;;;;5093494;28;20054;-62
2023/08/15 09:12:47;;;;;;;10.57;4.10;;;22.20;99.90;;;;;;5094071;28;20024;-62
2023/08/15 09:15:13;;;;;;;11.23;3.28;;;22.30;99.90;;;;;;5093474;28;20032;-62
2023/08/15 09:17:39;;;;;;;6.00;2.88;;;22.50;99.90;;;;;;5093482;28;20028;-62
2023/08/15 09:20:12;;;;;;;5.95;3.47;;;22.50;99.90;;;;;;5093099;28;20157;-62
2023/08/15 09:22:44;;;;;;;6.65;3.50;;;22.70;99.90;;;;;;5093056;28;20082;-62
2023/08/15 09:25:11;;;;;;;8.10;3.28;;;23.00;99.90;;;;;;5093239;28;20485;-62
2023/08/15 09:27:38;;;;;;;10.55;3.63;;;23.00;99.90;;;;;;5093608;28;20036;-62
2023/08/15 09:30:16;;;;;;;8.38;4.00;;;23.10;99.90;;;;;;5093182;28;20481;-62
2023/08/15 09:32:44;;;;;;;9.05;3.63;;;23.30;99.90;;;;;;5093102;28;20036;-62
2023/08/15 09:35:15;;;;;;;8.60;3.75;;;23.20;99.90;;;;;;5093159;28;20024;-62
2023/08/15 09:37:45;;;;;;;10.38;3.83;;;23.50;99.90;;;;;;5093196;28;20388;-62
2023/08/15 09:40:20;;;;;;;7.18;3.40;;;23.60;99.90;;;;;;5092963;28;20388;-62
2023/08/15 09:42:46;;;;;;;8.48;3.13;;;23.60;99.90;;;;;;5092931;28;20447;-62
2023/08/15 09:45:15;;;;;;;8.65;3.10;;;23.60;99.90;;;;;;5092847;28;20023;-62
2023/08/15 09:47:43;;;;;;;10.30;3.17;;;23.70;99.90;;;;;;5093192;28;20490;-62
2023/08/15 09:50:10;;;;;;;8.20;3.25;;;23.70;99.90;;;;;;5091456;28;20019;-62
2023/08/15 09:52:39;;;;;;;7.28;2.97;;;23.50;99.90;;;;;;5092880;28;20064;-62
2023/08/15 09:55:10;;;;;;;7.95;3.30;;;23.30;99.90;;;;;;5092719;28;20043;-62
2023/08/15 09:57:40;;;;;;;6.15;2.90;;;23.20;99.90;;;;;;5092705;28;20024;-62
2023/08/15 10:00:12;;;;;;;6.68;2.88;;;23.10;99.90;;;;;;5092614;28;20397;-62
2023/08/15 10:03:08;;;;;;;6.55;2.97;;;23.00;99.90;;;;;;5092608;28;20060;-62
2023/08/15 10:05:36;;;;;;;6.05;3.00;;;23.00;99.90;;;;;;5091242;28;20054;-62
2023/08/15 10:08:02;;;;;;;8.35;3.10;;;22.90;99.90;;;;;;5092926;28;20103;-62
2023/08/15 10:10:30;;;;;;;8.80;3.22;;;22.90;99.90;;;;;;5092521;28;20131;-62
2023/08/15 10:12:58;;;;;;;9.15;3.22;;;23.00;99.90;;;;;;5092459;28;20541;-62
2023/08/15 10:15:24;;;;;;;6.78;3.30;;;22.90;99.90;;;;;;5092180;28;20016;-62
2023/08/15 10:17:51;;;;;;;8.40;3.30;;;22.90;99.90;;;;;;5092286;28;20133;-62
2023/08/15 10:20:20;;;;;;;8.23;3.60;;;22.90;99.90;;;;;;5091984;28;20024;-62
2023/08/15 10:22:50;;;;;;;7.68;3.17;;;23.00;99.90;;;;;;5092583;28;20020;-62
2023/08/15 10:25:28;;;;;;;8.57;3.72;;;22.90;99.90;;;;;;5092143;28;20020;-62
2023/08/15 10:27:55;;;;;;;7.75;3.53;;;23.00;99.90;;;;;;5092230;28;20054;-62
2023/08/15 10:30:35;;;;;;;9.20;4.13;;;23.20;99.90;;;;;;5092088;28;20031;-62
2023/08/15 10:33:12;;;;;;;7.80;3.47;;;23.20;99.90;;;;;;5091918;28;20447;-61
2023/08/15 10:35:42;;;;;;;10.43;3.53;;;23.30;99.90;;;;;;5092054;28;20031;-62
2023/08/15 10:38:14;;;;;;;9.05;3.00;;;23.30;99.90;;;;;;5091962;28;20393;-62
2023/08/15 10:40:44;;;;;;;9.60;3.55;;;23.50;99.90;;;;;;5091849;28;20397;-62
2023/08/15 10:43:11;;;;;;;7.40;3.40;;;23.60;99.90;;;;;;5091937;28;20024;-62
2023/08/15 10:45:52;;;;;;;10.07;3.20;;;23.80;99.90;;;;;;5091726;28;20545;-61
2023/08/15 10:48:36;;;;;;;7.30;3.13;;;23.90;99.90;;;;;;5091562;28;20032;-62
2023/08/15 10:51:02;;;;;;;8.75;3.40;;;23.90;99.90;;;;;;5091919;28;20472;-61
2023/08/15 10:53:28;;;;;;;7.28;3.30;;;24.00;99.90;;;;;;5091675;28;20060;-61
2023/08/15 10:55:54;;;;;;;9.57;3.50;;;24.00;99.90;;;;;;5091601;28;20107;-62
2023/08/15 10:58:22;;;;;;;8.05;3.05;;;24.00;99.90;;;;;;5091578;28;20050;-61
2023/08/15 11:00:51;;;;;;;8.13;3.45;;;24.10;99.90;;;;;;5091352;28;20031;-62
2023/08/15 11:03:17;;;;;;;6.03;3.15;;;24.10;99.90;;;;;;5091333;28;20107;-61
2023/08/15 11:05:43;;;;;;;7.60;3.50;;;24.00;99.90;;;;;;5091822;28;20177;-62
2023/08/15 11:08:18;;;;;;;8.00;3.80;;;24.10;99.90;;;;;;5091562;28;20052;-61
2023/08/15 11:10:45;;;;;;;9.90;3.50;;;24.10;99.90;;;;;;5091483;28;20040;-62
2023/08/15 11:13:11;;;;;;;7.65;3.20;;;23.90;99.90;;;;;;5091949;28;20028;-62
2023/08/15 11:15:37;;;;;;;7.22;3.50;;;23.70;99.90;;;;;;5091283;28;20035;-62
2023/08/15 11:18:04;;;;;;;8.95;3.80;;;23.60;99.90;;;;;;5091156;28;20032;-62
2023/08/15 11:20:30;;;;;;;8.40;3.33;;;23.50;99.90;;;;;;5091305;28;20079;-62
2023/08/15 11:22:57;;;;;;;10.20;3.67;;;23.40;99.90;;;;;;5091408;28;20024;-61
2023/08/15 11:25:23;;;;;;;7.22;3.15;;;23.30;99.90;;;;;;5091446;28;20031;-61
2023/08/15 11:27:50;;;;;;;8.32;2.95;;;23.30;99.90;;;;;;5091358;28;20024;-62
2023/08/15 11:30:17;;;;;;;8.13;3.03;;;23.40;99.90;;;;;;5090821;28;20027;-62
2023/08/15 11:32:43;;;;;;;8.32;3.17;;;23.50;99.90;;;;;;5090857;28;20028;-62
2023/08/15 11:35:10;;;;;;;7.70;3.35;;;23.50;99.90;;;;;;5091703;28;20038;-62
2023/08/15 11:37:37;;;;;;;6.90;3.22;;;23.60;99.90;;;;;;5091226;28;20541;-61
2023/08/15 11:40:06;;;;;;;8.60;3.55;;;23.80;99.90;;;;;;5091148;28;20027;-62
2023/08/15 11:42:33;;;;;;;8.23;2.70;;;24.00;99.90;;;;;;5073395;28;20028;-62
2023/08/15 11:45:11;;;;;;;7.05;2.70;;;23.90;99.90;;;;;;5091060;28;20016;-62
2023/08/15 11:47:58;;;;;;;4.75;2.45;;;24.00;99.90;;;;;;5090781;28;20043;-62
2023/08/15 11:50:26;;;;;;;7.15;2.70;;;24.20;99.90;;;;;;5091058;28;20032;-62
2023/08/15 11:52:52;;;;;;;7.25;2.67;;;24.10;99.90;;;;;;5091019;28;20035;-62
2023/08/15 11:55:18;;;;;;;7.07;3.15;;;24.30;99.90;;;;;;5090753;28;20025;-62
2023/08/15 11:57:44;;;;;;;8.45;3.00;;;24.40;99.90;;;;;;5090848;28;20024;-61
2023/08/15 12:00:11;;;;;;;5.32;2.80;;;24.60;99.90;;;;;;5091152;28;20066;-61
2023/08/15 12:02:45;;;;;;;6.47;2.85;;;24.80;99.90;;;;;;5089896;28;20024;-61
2023/08/15 12:05:12;;;;;;;7.45;2.78;;;25.00;99.90;;;;;;5090958;28;20115;-61
2023/08/15 12:07:38;;;;;;;9.13;2.88;;;25.10;99.90;;;;;;5090813;28;20060;-61
2023/08/15 12:10:09;;;;;;;7.22;3.08;;;25.10;99.90;;;;;;5091064;28;20027;-61
2023/08/15 12:12:43;;;;;;;9.00;2.97;;;25.20;99.90;;;;;;5091517;28;20055;-62
2023/08/15 12:15:10;;;;;;;8.85;2.90;;;25.20;99.90;;;;;;5094236;28;20050;-61
2023/08/15 12:17:37;;;;;;;5.63;2.97;;;25.30;99.90;;;;;;5094580;28;20028;-61
2023/08/15 12:20:06;;;;;;;7.47;3.00;;;25.40;99.90;;;;;;5094473;28;20024;-61
2023/08/15 12:22:32;;;;;;;7.20;3.05;;;25.50;99.90;;;;;;5094533;28;20473;-61
2023/08/15 12:24:58;;;;;;;7.03;3.30;;;25.60;99.90;;;;;;5094518;28;20453;-62
2023/08/15 12:27:24;;;;;;;5.78;2.78;;;25.50;99.90;;;;;;5094099;28;20048;-62
2023/08/15 12:29:50;;;;;;;7.53;2.58;;;25.50;99.90;;;;;;5094138;28;20090;-61
2023/08/15 12:32:15;;;;;;;6.10;2.60;;;25.50;99.90;;;;;;5076131;28;20031;-62
2023/08/15 12:34:41;;;;;;;4.50;2.40;;;25.40;99.90;;;;;;5094347;28;20020;-61
2023/08/15 12:37:08;;;;;;;6.57;2.60;;;25.20;99.90;;;;;;5094800;28;20031;-61
2023/08/15 12:39:34;;;;;;;5.38;2.40;;;25.40;99.90;;;;;;5094136;28;20038;-61
2023/08/15 12:42:00;;;;;;;7.35;2.65;;;25.50;99.90;;;;;;5094089;28;20017;-62
2023/08/15 12:44:26;;;;;;;5.57;2.72;;;25.40;99.90;;;;;;5093857;28;20568;-62
2023/08/15 12:46:51;;;;;;;4.78;2.78;;;25.50;99.90;;;;;;5094018;28;20115;-61